Etusivu
METAR-TAF:

METAR-TAF

Lentoasemat :

Longyearbyen, Norja

Huippuvuorten lentoasema

Leveyspiiri: 78-15N, Pituuspiiri: 015-28E, korkeus merenpinnasta: 2 m

Tämänhetkinen sää

Tämä raportti tehtiin 54 minuuttia sitten, kello 19.50 UTC
Tuuli 10 kn lännestä
Lämpötila 6°C
Kosteus 87%
Ilmanpaine 1020 hPa
Näkyvyys 10 km tai enemmän
Hajanaisia pilviä 800 ft:n korkeudessa

METAR: ENSB 231950Z 27010KT 9999 SCT008 06/04 Q1020 RMK WIND 1400FT 25008KT

Aika: 22:44 (20:44 UTC)

Sääennuste

Ennuste voimassa 23. päivästä klo 18 UTC - 24. päivään klo 18 UTC
Tuuli 8 kn lännestä/lounaasta
Näkyvyys 10 km tai enemmän
Muutamia pilviä 800 ft:n korkeudessa
Hajonneita pilviä 2000 ft:n korkeudessa
Ajoittain
23. päivästä klo 18 UTC - 24. päivään klo 18 UTC
Hajonneita pilviä 800 ft:n korkeudessa

TAF: ENSB 2318/2418 25008KT 9999 FEW008 BKN020 TEMPO 2318/2418 BKN008

Säähavainnot ja -ennusteet yli 4000 lentoasemalta (METAR- ja TAF-raportit).

Käytössä olevat sääasemat on merkitty karttaan keltaisilla ja punaisilla pisteillä.

Aseta hiiri pisteen päälle nähdäksesi sääaseman nimen.

Klikkaa sitten nähdäksesi säähavainnot ja -ennusteet.

Kartan vaihtaminen: klikkaa mustalla rastilla varustettuja vihreitä pisteitä, niin voit zoomata sisään; viivalla varustettua vihreää pistettä, niin voit zoomata ulos tai vihreitä nuolia, niin pääset viereisille kartoille.


METAR-TAF: